sensor_id;sensor_type;location;lat;lon;timestamp;P1;durP1;ratioP1;P2;durP2;ratioP2
45764;SDS011;31474;45.332;10.230;2023-07-30T16:46:35;3.70;;;3.03;;
45764;SDS011;31474;45.332;10.230;2023-07-30T16:49:01;6.30;;;2.72;;
45764;SDS011;31474;45.332;10.230;2023-07-30T16:51:26;7.70;;;2.75;;
45764;SDS011;31474;45.332;10.230;2023-07-30T16:53:52;2.97;;;2.30;;
45764;SDS011;31474;45.332;10.230;2023-07-30T16:56:18;3.50;;;2.70;;
45764;SDS011;31474;45.332;10.230;2023-07-30T16:58:43;2.88;;;2.58;;
45764;SDS011;31474;45.332;10.230;2023-07-30T17:01:09;5.93;;;2.92;;
45764;SDS011;31474;45.332;10.230;2023-07-30T17:03:36;3.45;;;3.13;;
45764;SDS011;31474;45.332;10.230;2023-07-30T17:06:03;3.70;;;2.70;;
45764;SDS011;31474;45.332;10.230;2023-07-30T17:08:29;2.88;;;2.40;;
45764;SDS011;31474;45.332;10.230;2023-07-30T17:10:55;3.33;;;2.88;;
45764;SDS011;31474;45.332;10.230;2023-07-30T17:13:21;3.40;;;2.60;;
45764;SDS011;31474;45.332;10.230;2023-07-30T17:15:47;3.00;;;2.70;;
45764;SDS011;31474;45.332;10.230;2023-07-30T17:18:13;3.10;;;2.80;;
45764;SDS011;31474;45.332;10.230;2023-07-30T17:20:41;3.15;;;2.20;;
45764;SDS011;31474;45.332;10.230;2023-07-30T17:23:07;4.10;;;2.60;;
45764;SDS011;31474;45.332;10.230;2023-07-30T17:25:33;4.68;;;2.70;;
45764;SDS011;31474;45.332;10.230;2023-07-30T17:27:58;4.13;;;2.13;;
45764;SDS011;31474;45.332;10.230;2023-07-30T17:30:24;3.20;;;2.75;;
45764;SDS011;31474;45.332;10.230;2023-07-30T17:32:50;3.53;;;2.70;;
45764;SDS011;31474;45.332;10.230;2023-07-30T17:35:15;5.55;;;2.55;;
45764;SDS011;31474;45.332;10.230;2023-07-30T17:37:41;4.25;;;2.75;;
45764;SDS011;31474;45.332;10.230;2023-07-30T17:40:08;3.30;;;2.72;;
45764;SDS011;31474;45.332;10.230;2023-07-30T17:42:34;5.25;;;2.53;;
45764;SDS011;31474;45.332;10.230;2023-07-30T17:45:00;4.35;;;2.80;;
45764;SDS011;31474;45.332;10.230;2023-07-30T17:47:26;3.95;;;2.75;;
45764;SDS011;31474;45.332;10.230;2023-07-30T17:49:54;4.45;;;2.90;;
45764;SDS011;31474;45.332;10.230;2023-07-30T17:52:20;4.82;;;2.83;;
45764;SDS011;31474;45.332;10.230;2023-07-30T17:54:49;3.30;;;2.63;;
45764;SDS011;31474;45.332;10.230;2023-07-30T17:57:15;4.65;;;2.80;;
45764;SDS011;31474;45.332;10.230;2023-07-30T17:59:41;7.68;;;4.63;;
45764;SDS011;31474;45.332;10.230;2023-07-30T18:02:06;5.28;;;4.25;;
45764;SDS011;31474;45.332;10.230;2023-07-30T18:04:32;7.78;;;3.42;;
45764;SDS011;31474;45.332;10.230;2023-07-30T18:06:58;8.07;;;3.75;;
45764;SDS011;31474;45.332;10.230;2023-07-30T18:09:24;5.75;;;3.58;;
45764;SDS011;31474;45.332;10.230;2023-07-30T18:11:50;4.57;;;3.17;;
45764;SDS011;31474;45.332;10.230;2023-07-30T18:14:16;4.75;;;3.53;;
45764;SDS011;31474;45.332;10.230;2023-07-30T18:16:41;6.00;;;3.55;;
45764;SDS011;31474;45.332;10.230;2023-07-30T18:19:07;6.72;;;4.43;;
45764;SDS011;31474;45.332;10.230;2023-07-30T18:21:32;8.02;;;4.18;;
45764;SDS011;31474;45.332;10.230;2023-07-30T18:23:58;5.40;;;3.58;;
45764;SDS011;31474;45.332;10.230;2023-07-30T18:26:24;5.70;;;4.35;;
45764;SDS011;31474;45.332;10.230;2023-07-30T18:28:50;4.63;;;3.38;;
45764;SDS011;31474;45.332;10.230;2023-07-30T18:31:16;4.57;;;3.85;;
45764;SDS011;31474;45.332;10.230;2023-07-30T18:33:42;4.65;;;3.63;;
45764;SDS011;31474;45.332;10.230;2023-07-30T18:36:08;4.20;;;3.60;;
45764;SDS011;31474;45.332;10.230;2023-07-30T18:38:33;4.28;;;3.38;;
45764;SDS011;31474;45.332;10.230;2023-07-30T18:41:02;3.85;;;3.50;;
45764;SDS011;31474;45.332;10.230;2023-07-30T18:43:29;4.80;;;3.90;;
45764;SDS011;31474;45.332;10.230;2023-07-30T18:45:55;6.00;;;3.65;;
45764;SDS011;31474;45.332;10.230;2023-07-30T18:48:21;16.60;;;13.63;;
45764;SDS011;31474;45.332;10.230;2023-07-30T18:50:47;26.67;;;19.25;;
45764;SDS011;31474;45.332;10.230;2023-07-30T18:53:14;17.17;;;14.10;;
45764;SDS011;31474;45.332;10.230;2023-07-30T18:55:43;10.27;;;6.50;;
45764;SDS011;31474;45.332;10.230;2023-07-30T18:58:09;7.95;;;5.18;;
45764;SDS011;31474;45.332;10.230;2023-07-30T19:00:35;6.32;;;4.50;;
45764;SDS011;31474;45.332;10.230;2023-07-30T19:03:00;7.18;;;6.20;;
45764;SDS011;31474;45.332;10.230;2023-07-30T19:05:26;6.88;;;6.18;;
45764;SDS011;31474;45.332;10.230;2023-07-30T19:07:52;7.82;;;6.30;;
45764;SDS011;31474;45.332;10.230;2023-07-30T19:10:18;8.27;;;5.90;;
45764;SDS011;31474;45.332;10.230;2023-07-30T19:12:45;6.88;;;5.75;;
45764;SDS011;31474;45.332;10.230;2023-07-30T19:15:11;7.25;;;6.00;;
45764;SDS011;31474;45.332;10.230;2023-07-30T19:17:36;7.72;;;6.85;;
45764;SDS011;31474;45.332;10.230;2023-07-30T19:20:02;9.02;;;7.47;;
45764;SDS011;31474;45.332;10.230;2023-07-30T19:22:28;8.07;;;7.03;;
45764;SDS011;31474;45.332;10.230;2023-07-30T19:24:54;7.10;;;6.32;;
45764;SDS011;31474;45.332;10.230;2023-07-30T19:27:19;7.00;;;6.30;;
45764;SDS011;31474;45.332;10.230;2023-07-30T19:29:45;6.43;;;5.47;;
45764;SDS011;31474;45.332;10.230;2023-07-30T19:32:10;8.27;;;6.40;;
45764;SDS011;31474;45.332;10.230;2023-07-30T19:34:36;9.48;;;6.28;;
45764;SDS011;31474;45.332;10.230;2023-07-30T19:37:02;7.22;;;6.53;;
45764;SDS011;31474;45.332;10.230;2023-07-30T19:39:27;8.80;;;7.35;;
45764;SDS011;31474;45.332;10.230;2023-07-30T19:41:53;8.90;;;7.10;;
45764;SDS011;31474;45.332;10.230;2023-07-30T19:44:19;11.30;;;7.40;;
45764;SDS011;31474;45.332;10.230;2023-07-30T19:46:44;7.97;;;7.18;;
45764;SDS011;31474;45.332;10.230;2023-07-30T19:49:10;7.55;;;6.72;;
45764;SDS011;31474;45.332;10.230;2023-07-30T19:51:36;9.48;;;6.47;;
45764;SDS011;31474;45.332;10.230;2023-07-30T19:54:02;10.25;;;6.18;;
45764;SDS011;31474;45.332;10.230;2023-07-30T19:56:28;7.10;;;6.30;;
45764;SDS011;31474;45.332;10.230;2023-07-30T19:58:53;6.63;;;5.93;;
45764;SDS011;31474;45.332;10.230;2023-07-30T20:01:19;9.40;;;6.90;;
45764;SDS011;31474;45.332;10.230;2023-07-30T20:03:45;9.15;;;7.15;;
45764;SDS011;31474;45.332;10.230;2023-07-30T20:06:10;9.18;;;7.03;;
45764;SDS011;31474;45.332;10.230;2023-07-30T20:08:36;8.60;;;7.53;;
45764;SDS011;31474;45.332;10.230;2023-07-30T20:11:03;7.93;;;6.63;;
45764;SDS011;31474;45.332;10.230;2023-07-30T20:13:30;12.13;;;7.85;;
45764;SDS011;31474;45.332;10.230;2023-07-30T20:15:56;7.53;;;6.82;;
45764;SDS011;31474;45.332;10.230;2023-07-30T20:18:22;13.10;;;7.22;;
45764;SDS011;31474;45.332;10.230;2023-07-30T20:20:49;8.90;;;7.22;;
45764;SDS011;31474;45.332;10.230;2023-07-30T20:23:14;8.85;;;8.00;;
45764;SDS011;31474;45.332;10.230;2023-07-30T20:25:40;11.43;;;8.32;;
45764;SDS011;31474;45.332;10.230;2023-07-30T20:28:06;8.55;;;7.75;;
45764;SDS011;31474;45.332;10.230;2023-07-30T20:30:33;9.68;;;8.60;;
45764;SDS011;31474;45.332;10.230;2023-07-30T20:32:59;10.82;;;9.73;;
45764;SDS011;31474;45.332;10.230;2023-07-30T20:35:25;10.00;;;8.38;;
45764;SDS011;31474;45.332;10.230;2023-07-30T20:37:52;13.77;;;8.88;;
45764;SDS011;31474;45.332;10.230;2023-07-30T20:40:24;10.27;;;9.20;;
45764;SDS011;31474;45.332;10.230;2023-07-30T20:42:51;12.38;;;10.15;;
45764;SDS011;31474;45.332;10.230;2023-07-30T20:45:18;11.40;;;10.18;;
45764;SDS011;31474;45.332;10.230;2023-07-30T20:47:50;13.77;;;10.50;;
45764;SDS011;31474;45.332;10.230;2023-07-30T20:50:17;11.80;;;9.73;;
45764;SDS011;31474;45.332;10.230;2023-07-30T20:52:43;12.02;;;10.82;;
45764;SDS011;31474;45.332;10.230;2023-07-30T20:55:13;15.20;;;10.98;;
45764;SDS011;31474;45.332;10.230;2023-07-30T20:57:39;9.98;;;8.98;;
45764;SDS011;31474;45.332;10.230;2023-07-30T21:00:06;12.02;;;10.43;;
45764;SDS011;31474;45.332;10.230;2023-07-30T21:02:33;14.05;;;9.70;;
45764;SDS011;31474;45.332;10.230;2023-07-30T21:04:59;12.60;;;10.02;;
45764;SDS011;31474;45.332;10.230;2023-07-30T21:07:25;12.13;;;9.75;;
45764;SDS011;31474;45.332;10.230;2023-07-30T21:09:50;12.55;;;10.15;;
45764;SDS011;31474;45.332;10.230;2023-07-30T21:12:18;11.38;;;9.77;;
45764;SDS011;31474;45.332;10.230;2023-07-30T21:14:44;10.68;;;9.57;;
45764;SDS011;31474;45.332;10.230;2023-07-30T21:17:09;11.27;;;9.98;;
45764;SDS011;31474;45.332;10.230;2023-07-30T21:19:35;10.98;;;9.85;;
45764;SDS011;31474;45.332;10.230;2023-07-30T21:22:00;12.93;;;10.75;;
45764;SDS011;31474;45.332;10.230;2023-07-30T21:24:26;13.32;;;10.45;;
45764;SDS011;31474;45.332;10.230;2023-07-30T21:26:52;12.43;;;10.27;;
45764;SDS011;31474;45.332;10.230;2023-07-30T21:29:17;13.00;;;10.55;;
45764;SDS011;31474;45.332;10.230;2023-07-30T21:31:43;13.60;;;10.38;;
45764;SDS011;31474;45.332;10.230;2023-07-30T21:34:09;13.13;;;10.57;;
45764;SDS011;31474;45.332;10.230;2023-07-30T21:36:34;11.10;;;9.82;;
45764;SDS011;31474;45.332;10.230;2023-07-30T21:39:00;11.55;;;10.32;;
45764;SDS011;31474;45.332;10.230;2023-07-30T21:41:26;12.50;;;11.27;;
45764;SDS011;31474;45.332;10.230;2023-07-30T21:43:52;11.70;;;10.23;;
45764;SDS011;31474;45.332;10.230;2023-07-30T21:46:17;14.77;;;10.35;;
45764;SDS011;31474;45.332;10.230;2023-07-30T21:48:43;12.55;;;10.38;;
45764;SDS011;31474;45.332;10.230;2023-07-30T21:51:08;14.25;;;9.65;;
45764;SDS011;31474;45.332;10.230;2023-07-30T21:53:35;14.27;;;10.88;;
45764;SDS011;31474;45.332;10.230;2023-07-30T21:56:00;13.73;;;12.00;;
45764;SDS011;31474;45.332;10.230;2023-07-30T21:58:27;12.57;;;9.23;;
45764;SDS011;31474;45.332;10.230;2023-07-30T22:00:54;11.45;;;9.10;;
45764;SDS011;31474;45.332;10.230;2023-07-30T22:03:20;11.07;;;9.20;;
45764;SDS011;31474;45.332;10.230;2023-07-30T22:05:46;11.13;;;8.52;;
45764;SDS011;31474;45.332;10.230;2023-07-30T22:08:12;9.45;;;7.88;;
45764;SDS011;31474;45.332;10.230;2023-07-30T22:10:41;7.28;;;6.57;;
45764;SDS011;31474;45.332;10.230;2023-07-30T22:13:07;7.70;;;6.57;;
45764;SDS011;31474;45.332;10.230;2023-07-30T22:15:34;8.75;;;7.82;;
45764;SDS011;31474;45.332;10.230;2023-07-30T22:17:59;9.45;;;8.45;;
45764;SDS011;31474;45.332;10.230;2023-07-30T22:20:25;12.98;;;9.18;;
45764;SDS011;31474;45.332;10.230;2023-07-30T22:22:51;9.63;;;8.73;;
45764;SDS011;31474;45.332;10.230;2023-07-30T22:25:17;12.43;;;9.13;;
45764;SDS011;31474;45.332;10.230;2023-07-30T22:27:42;11.23;;;9.32;;
45764;SDS011;31474;45.332;10.230;2023-07-30T22:30:09;9.63;;;8.70;;
45764;SDS011;31474;45.332;10.230;2023-07-30T22:32:35;8.68;;;7.80;;
45764;SDS011;31474;45.332;10.230;2023-07-30T22:35:01;8.07;;;6.93;;
45764;SDS011;31474;45.332;10.230;2023-07-30T22:37:28;11.88;;;6.47;;
45764;SDS011;31474;45.332;10.230;2023-07-30T22:39:53;9.90;;;7.40;;
45764;SDS011;31474;45.332;10.230;2023-07-30T22:42:19;9.52;;;6.82;;
45764;SDS011;31474;45.332;10.230;2023-07-30T22:44:45;7.93;;;6.50;;
45764;SDS011;31474;45.332;10.230;2023-07-30T22:47:11;9.80;;;7.07;;
45764;SDS011;31474;45.332;10.230;2023-07-30T22:49:36;8.25;;;6.95;;
45764;SDS011;31474;45.332;10.230;2023-07-30T22:52:02;8.43;;;7.63;;
45764;SDS011;31474;45.332;10.230;2023-07-30T22:54:29;8.23;;;7.43;;
45764;SDS011;31474;45.332;10.230;2023-07-30T23:54:09;7.65;;;5.07;;
45764;SDS011;31474;45.332;10.230;2023-07-30T23:56:34;5.75;;;5.15;;
45764;SDS011;31474;45.332;10.230;2023-07-30T23:59:00;7.20;;;6.50;;
